createdAt,value
2018-08-12T00:01:59.923Z,1.60
2018-08-12T00:04:27.083Z,1.90
2018-08-12T00:06:54.307Z,1.40
2018-08-12T00:09:21.627Z,1.70
2018-08-12T00:11:48.796Z,1.60
2018-08-12T00:14:16.090Z,1.73
2018-08-12T00:16:43.380Z,1.60
2018-08-12T00:19:10.635Z,1.83
2018-08-12T00:21:37.922Z,1.50
2018-08-12T00:24:05.163Z,1.60
2018-08-12T00:26:32.379Z,1.80
2018-08-12T00:28:59.573Z,1.43
2018-08-12T00:31:26.903Z,1.53
2018-08-12T00:33:54.170Z,1.67
2018-08-12T00:36:21.389Z,1.70
2018-08-12T00:38:48.617Z,1.70
2018-08-12T00:41:15.791Z,1.73
2018-08-12T00:43:43.033Z,1.80
2018-08-12T00:46:10.376Z,1.60
2018-08-12T00:48:37.524Z,1.70
2018-08-12T00:51:04.912Z,1.53
2018-08-12T00:53:32.427Z,1.63
2018-08-12T00:55:59.710Z,1.60
2018-08-12T00:58:27.003Z,1.70
2018-08-12T01:00:54.271Z,1.80
2018-08-12T01:03:31.497Z,1.60
2018-08-12T01:05:58.772Z,1.80
2018-08-12T01:08:26.032Z,2.10
2018-08-12T01:10:53.247Z,2.10
2018-08-12T01:13:20.470Z,2.07
2018-08-12T01:15:47.683Z,1.83
2018-08-12T01:18:14.940Z,1.50
2018-08-12T01:20:42.596Z,1.97
2018-08-12T01:23:13.235Z,1.70
2018-08-12T01:25:40.420Z,1.77
2018-08-12T01:28:07.692Z,2.00
2018-08-12T01:30:34.963Z,1.77
2018-08-12T01:33:02.188Z,2.00
2018-08-12T01:35:29.457Z,1.90
2018-08-12T01:37:56.644Z,2.20
2018-08-12T01:40:23.816Z,1.80
2018-08-12T01:42:51.084Z,2.00
2018-08-12T01:45:19.472Z,1.80
2018-08-12T01:47:46.708Z,2.17
2018-08-12T01:50:15.331Z,1.90
2018-08-12T01:52:42.607Z,2.07
2018-08-12T01:55:09.861Z,2.60
2018-08-12T01:57:37.236Z,2.27
2018-08-12T02:00:06.422Z,2.17
2018-08-12T02:02:33.628Z,1.93
2018-08-12T02:05:00.879Z,2.70
2018-08-12T02:07:28.167Z,2.53
2018-08-12T02:09:55.427Z,2.40
2018-08-12T02:12:22.732Z,2.20
2018-08-12T02:14:49.874Z,1.90
2018-08-12T02:17:17.064Z,2.17
2018-08-12T02:19:44.378Z,2.00
2018-08-12T02:22:11.605Z,2.27
2018-08-12T02:24:38.918Z,2.67
2018-08-12T02:27:06.112Z,2.37
2018-08-12T02:29:33.311Z,2.40
2018-08-12T02:32:00.524Z,2.70
2018-08-12T02:34:27.851Z,2.00
2018-08-12T02:36:55.072Z,2.30
2018-08-12T02:39:22.253Z,2.37
2018-08-12T02:41:49.456Z,2.20
2018-08-12T02:44:16.675Z,1.97
2018-08-12T02:46:43.901Z,2.20
2018-08-12T02:49:11.190Z,2.07
2018-08-12T02:51:38.407Z,2.37
2018-08-12T02:54:05.791Z,2.10
2018-08-12T02:56:33.072Z,2.23
2018-08-12T02:59:00.352Z,2.50
2018-08-12T03:01:27.579Z,2.33
2018-08-12T03:03:55.068Z,2.20
2018-08-12T03:06:22.306Z,2.10
2018-08-12T03:08:49.621Z,2.13
2018-08-12T03:11:16.912Z,2.10
2018-08-12T03:13:44.921Z,2.10
2018-08-12T03:16:12.128Z,2.50
2018-08-12T03:18:39.362Z,2.23
2018-08-12T03:21:06.687Z,2.30
2018-08-12T03:23:44.588Z,2.30
2018-08-12T03:26:11.791Z,2.60
2018-08-12T03:28:38.954Z,2.30
2018-08-12T03:31:06.354Z,2.60
2018-08-12T03:33:33.686Z,2.43
2018-08-12T03:36:01.151Z,2.53
2018-08-12T03:38:28.367Z,2.53
2018-08-12T03:40:55.552Z,2.20
2018-08-12T03:43:22.811Z,2.23
2018-08-12T03:45:50.061Z,2.43
2018-08-12T03:48:17.257Z,1.97
2018-08-12T03:50:44.396Z,2.17
2018-08-12T03:53:11.667Z,2.30
2018-08-12T03:55:38.877Z,2.50
2018-08-12T03:58:06.128Z,2.50
2018-08-12T04:00:33.449Z,2.30
2018-08-12T04:03:00.633Z,2.03
2018-08-12T04:05:27.918Z,2.10
2018-08-12T04:07:55.227Z,2.43
2018-08-12T04:10:22.497Z,2.30
2018-08-12T04:12:49.785Z,2.73
2018-08-12T04:15:17.002Z,2.50
2018-08-12T04:17:44.227Z,2.30
2018-08-12T04:20:25.812Z,2.60
2018-08-12T04:22:53.032Z,2.13
2018-08-12T04:25:20.302Z,2.20
2018-08-12T04:27:47.548Z,2.20
2018-08-12T04:30:14.719Z,2.10
2018-08-12T04:32:42.013Z,2.17
2018-08-12T04:35:09.408Z,2.20
2018-08-12T04:37:36.572Z,2.10
2018-08-12T04:40:05.045Z,2.30
2018-08-12T04:42:32.269Z,2.00
2018-08-12T04:44:59.593Z,1.93
2018-08-12T04:47:27.029Z,2.20
2018-08-12T04:49:54.335Z,2.10
2018-08-12T04:52:21.476Z,2.30
2018-08-12T04:54:48.665Z,2.30
2018-08-12T04:57:15.965Z,1.90
2018-08-12T04:59:43.225Z,2.20
2018-08-12T05:02:10.352Z,1.90
2018-08-12T05:04:41.439Z,1.83
2018-08-12T05:07:08.617Z,2.27
2018-08-12T05:09:35.903Z,2.23
2018-08-12T05:12:03.275Z,1.97
2018-08-12T05:14:30.628Z,2.20
2018-08-12T05:16:57.824Z,2.20
2018-08-12T05:19:25.213Z,2.13
2018-08-12T05:21:54.605Z,2.27
2018-08-12T05:24:21.881Z,2.23
2018-08-12T05:26:49.188Z,2.20
2018-08-12T05:29:16.870Z,2.10
2018-08-12T05:31:45.077Z,1.93
2018-08-12T05:34:12.395Z,2.00
2018-08-12T05:36:39.612Z,2.30
2018-08-12T05:39:09.601Z,2.10
2018-08-12T05:41:36.786Z,1.90
2018-08-12T05:44:04.348Z,2.03
2018-08-12T05:46:31.608Z,1.97
2018-08-12T05:48:58.968Z,1.87
2018-08-12T05:51:26.233Z,2.10
2018-08-12T05:53:53.436Z,2.43
2018-08-12T05:56:20.591Z,1.90
2018-08-12T05:58:47.865Z,2.00
2018-08-12T06:01:15.140Z,2.17
2018-08-12T06:03:42.370Z,1.80
2018-08-12T06:06:09.576Z,2.10
2018-08-12T06:08:36.722Z,1.80
2018-08-12T06:11:04.070Z,1.80
2018-08-12T06:13:31.362Z,1.60
2018-08-12T06:15:58.613Z,1.80
2018-08-12T06:18:25.855Z,1.70
2018-08-12T06:20:53.049Z,2.07
2018-08-12T06:23:20.394Z,1.80
2018-08-12T06:25:47.748Z,1.60
2018-08-12T06:28:14.948Z,1.73
2018-08-12T06:30:43.548Z,1.50
2018-08-12T06:33:10.809Z,1.70
2018-08-12T06:35:38.196Z,1.70
2018-08-12T06:38:05.628Z,1.57
2018-08-12T06:40:32.840Z,1.90
2018-08-12T06:43:00.079Z,1.63
2018-08-12T06:45:27.260Z,1.90
2018-08-12T06:47:54.609Z,1.40
2018-08-12T06:50:22.225Z,1.80
2018-08-12T06:52:49.466Z,1.37
2018-08-12T06:55:16.788Z,1.70
2018-08-12T06:57:44.045Z,1.40
2018-08-12T07:00:12.989Z,1.50
2018-08-12T07:02:40.392Z,1.50
2018-08-12T07:05:08.737Z,1.50
2018-08-12T07:07:36.148Z,1.20
2018-08-12T07:10:05.745Z,1.40
2018-08-12T07:12:33.019Z,1.30
2018-08-12T07:15:00.421Z,1.40
2018-08-12T07:17:27.707Z,1.50
2018-08-12T07:19:54.925Z,1.47
2018-08-12T07:22:22.193Z,1.43
2018-08-12T07:24:49.563Z,1.30
2018-08-12T07:27:17.597Z,1.20
2018-08-12T07:29:44.821Z,1.30
2018-08-12T07:32:12.150Z,1.20
2018-08-12T07:34:39.405Z,1.30
2018-08-12T07:37:06.941Z,1.57
2018-08-12T07:39:34.255Z,1.30
2018-08-12T07:42:01.536Z,1.53
2018-08-12T07:44:34.043Z,1.40
2018-08-12T07:47:01.299Z,1.30
2018-08-12T07:49:28.625Z,1.20
2018-08-12T07:51:56.000Z,1.27
2018-08-12T07:54:23.280Z,1.23
2018-08-12T07:56:50.522Z,1.27
2018-08-12T07:59:17.788Z,1.67
2018-08-12T08:01:45.124Z,1.20
2018-08-12T08:04:12.685Z,1.23
2018-08-12T08:06:40.205Z,1.50
2018-08-12T08:09:09.443Z,1.30
2018-08-12T08:11:37.339Z,1.50
2018-08-12T08:14:04.866Z,1.80
2018-08-12T08:16:32.122Z,1.70
2018-08-12T08:18:59.419Z,1.57
2018-08-12T08:21:26.834Z,1.30
2018-08-12T08:23:54.201Z,1.40
2018-08-12T08:26:28.257Z,1.40
2018-08-12T08:28:55.630Z,1.27
2018-08-12T08:31:23.177Z,1.20
2018-08-12T08:33:50.923Z,1.30
2018-08-12T08:36:19.126Z,1.40
2018-08-12T08:38:46.722Z,1.40
2018-08-12T08:41:14.114Z,1.17
2018-08-12T08:43:41.348Z,1.30
2018-08-12T08:46:08.715Z,1.40
2018-08-12T08:48:35.992Z,1.30
2018-08-12T08:51:03.307Z,1.40
2018-08-12T08:53:30.845Z,1.20
2018-08-12T08:55:58.230Z,1.37
2018-08-12T08:58:25.366Z,1.40
2018-08-12T09:00:52.696Z,1.27
2018-08-12T09:03:20.063Z,1.50
2018-08-12T09:05:47.946Z,1.60
2018-08-12T09:08:15.686Z,1.40
2018-08-12T09:10:43.102Z,1.63
2018-08-12T09:13:10.475Z,1.80
2018-08-12T09:15:38.057Z,1.83
2018-08-12T09:18:05.414Z,1.70
2018-08-12T09:20:32.798Z,1.70
2018-08-12T09:23:00.048Z,1.60
2018-08-12T09:25:27.456Z,1.53
2018-08-12T09:27:55.099Z,1.67
2018-08-12T09:30:22.620Z,1.83
2018-08-12T09:32:50.099Z,1.47
2018-08-12T09:35:17.413Z,1.40
2018-08-12T09:37:44.752Z,1.53
2018-08-12T09:40:13.645Z,1.50
2018-08-12T09:42:42.007Z,1.63
2018-08-12T09:45:11.807Z,1.77
2018-08-12T09:47:39.562Z,1.50
2018-08-12T09:50:07.901Z,1.60
2018-08-12T09:52:35.785Z,1.53
2018-08-12T09:55:07.611Z,1.40
2018-08-12T09:57:36.352Z,1.70
2018-08-12T10:00:21.952Z,1.47
2018-08-12T10:02:51.510Z,1.30
2018-08-12T10:05:19.566Z,1.60
2018-08-12T10:07:47.499Z,1.53
2018-08-12T10:10:15.324Z,1.50
2018-08-12T10:12:43.200Z,1.50
2018-08-12T10:15:10.791Z,1.50
2018-08-12T10:17:39.290Z,1.60
2018-08-12T10:20:07.329Z,1.60
2018-08-12T10:22:34.643Z,1.50
2018-08-12T10:25:01.873Z,1.47
2018-08-12T10:27:29.252Z,1.50
2018-08-12T10:29:56.556Z,1.60
2018-08-12T10:32:23.768Z,1.40
2018-08-12T10:34:51.034Z,1.30
2018-08-12T10:37:18.886Z,1.47
2018-08-12T10:39:46.114Z,1.43
2018-08-12T10:42:14.307Z,1.30
2018-08-12T10:44:41.577Z,1.47
2018-08-12T10:47:08.761Z,1.43
2018-08-12T10:49:36.150Z,1.40
2018-08-12T10:52:03.786Z,1.40
2018-08-12T10:54:31.174Z,1.30
2018-08-12T10:56:58.671Z,1.50
2018-08-12T10:59:25.999Z,1.60
2018-08-12T11:01:53.152Z,1.30
2018-08-12T11:04:20.438Z,1.40
2018-08-12T11:06:48.999Z,1.40
2018-08-12T11:09:16.569Z,1.30
2018-08-12T11:11:43.870Z,1.40
2018-08-12T11:14:11.381Z,1.50
2018-08-12T11:16:38.674Z,1.30
2018-08-12T11:19:06.029Z,1.50
2018-08-12T11:21:33.446Z,1.30
2018-08-12T11:24:00.656Z,1.40
2018-08-12T11:26:28.024Z,1.43
2018-08-12T11:28:55.428Z,1.33
2018-08-12T11:31:22.990Z,1.50
2018-08-12T11:33:50.150Z,1.40
2018-08-12T11:36:17.358Z,1.30
2018-08-12T11:38:44.543Z,1.30
2018-08-12T11:41:12.221Z,1.30
2018-08-12T11:43:39.512Z,1.20
2018-08-12T11:46:08.050Z,1.30
2018-08-12T11:48:35.267Z,1.40
2018-08-12T11:51:03.020Z,1.20
2018-08-12T11:53:32.989Z,1.30
2018-08-12T11:56:02.139Z,1.40
2018-08-12T11:58:29.384Z,1.50
2018-08-12T12:00:56.624Z,1.27
2018-08-12T12:03:28.069Z,1.50
2018-08-12T12:05:55.475Z,1.20
2018-08-12T12:08:22.822Z,1.20
2018-08-12T12:10:50.651Z,1.17
2018-08-12T12:13:17.871Z,1.40
2018-08-12T12:15:45.153Z,1.40
2018-08-12T12:18:12.593Z,1.20
2018-08-12T12:20:39.976Z,1.30
2018-08-12T12:23:07.350Z,1.40
2018-08-12T12:25:34.814Z,1.30
2018-08-12T12:28:02.083Z,1.10
2018-08-12T12:30:29.377Z,1.37
2018-08-12T12:32:56.651Z,1.43
2018-08-12T12:35:23.873Z,1.47
2018-08-12T12:37:51.219Z,1.37
2018-08-12T12:40:19.286Z,1.40
2018-08-12T12:42:47.276Z,1.40
2018-08-12T12:45:15.068Z,1.80
2018-08-12T12:47:43.455Z,1.40
2018-08-12T12:50:14.112Z,1.40
2018-08-12T12:52:42.599Z,1.37
2018-08-12T12:55:11.010Z,1.43
2018-08-12T12:57:38.324Z,2.30
2018-08-12T13:00:07.410Z,1.30
2018-08-12T13:02:35.240Z,1.30
2018-08-12T13:05:03.109Z,1.17
2018-08-12T13:07:30.583Z,1.43
2018-08-12T13:09:58.589Z,1.43
2018-08-12T13:12:26.256Z,1.30
2018-08-12T13:14:53.549Z,1.30
2018-08-12T13:17:20.803Z,1.37
2018-08-12T13:19:48.377Z,1.20
2018-08-12T13:22:15.785Z,1.47
2018-08-12T13:24:43.083Z,1.27
2018-08-12T13:27:12.103Z,1.23
2018-08-12T13:29:39.302Z,1.20
2018-08-12T13:32:06.553Z,1.30
2018-08-12T13:34:33.879Z,1.40
2018-08-12T13:37:01.041Z,1.53
2018-08-12T13:39:32.590Z,1.27
2018-08-12T13:41:59.789Z,1.10
2018-08-12T13:44:27.000Z,1.30
2018-08-12T13:46:55.761Z,1.17
2018-08-12T13:49:22.992Z,1.33
2018-08-12T13:51:50.219Z,0.90
2018-08-12T13:54:17.465Z,1.37
2018-08-12T13:56:53.440Z,1.20
2018-08-12T13:59:20.909Z,1.50
2018-08-12T14:01:52.384Z,1.90
2018-08-12T14:04:27.670Z,1.30
2018-08-12T14:06:55.274Z,1.60
2018-08-12T14:09:22.542Z,1.40
2018-08-12T14:11:49.981Z,1.30
2018-08-12T14:14:17.207Z,1.67
2018-08-12T14:16:44.404Z,1.20
2018-08-12T14:19:11.622Z,1.50
2018-08-12T14:21:38.908Z,1.40
2018-08-12T14:24:06.058Z,1.50
2018-08-12T14:26:33.282Z,1.47
2018-08-12T14:29:00.629Z,1.10
2018-08-12T14:31:29.288Z,1.50
2018-08-12T14:33:56.571Z,1.50
2018-08-12T14:36:25.947Z,1.20
2018-08-12T14:38:54.268Z,1.30
2018-08-12T14:41:21.463Z,1.13
2018-08-12T14:43:48.922Z,1.20
2018-08-12T14:46:16.153Z,1.30
2018-08-12T14:48:45.114Z,1.37
2018-08-12T14:51:12.297Z,1.23
2018-08-12T14:53:39.577Z,1.20
2018-08-12T14:56:06.800Z,1.30
2018-08-12T14:58:34.072Z,1.20
2018-08-12T15:01:01.240Z,1.30
2018-08-12T15:03:28.432Z,1.40
2018-08-12T15:06:00.237Z,1.20
2018-08-12T15:08:27.495Z,1.60
2018-08-12T15:10:54.827Z,1.27
2018-08-12T15:13:22.173Z,1.30
2018-08-12T15:15:49.731Z,1.20
2018-08-12T15:18:16.952Z,1.40
2018-08-12T15:20:45.230Z,1.30
2018-08-12T15:23:12.627Z,1.20
2018-08-12T15:25:39.803Z,1.10
2018-08-12T15:28:07.167Z,1.40
2018-08-12T15:30:40.140Z,1.37
2018-08-12T15:33:07.540Z,1.30
2018-08-12T15:35:35.016Z,1.17
2018-08-12T15:38:04.631Z,1.37
2018-08-12T15:40:31.878Z,1.30
2018-08-12T15:42:59.157Z,1.40
2018-08-12T15:45:26.400Z,1.30
2018-08-12T15:47:53.691Z,1.37
2018-08-12T15:50:20.821Z,1.30
2018-08-12T15:52:47.961Z,1.17
2018-08-12T15:55:15.228Z,1.50
2018-08-12T15:57:42.518Z,1.20
2018-08-12T16:00:13.855Z,1.30
2018-08-12T16:02:44.072Z,1.40
2018-08-12T16:05:11.441Z,1.40
2018-08-12T16:07:38.578Z,1.57
2018-08-12T16:10:09.954Z,1.10
2018-08-12T16:12:42.940Z,1.27
2018-08-12T16:15:11.696Z,1.40
2018-08-12T16:18:02.556Z,1.20
2018-08-12T16:20:31.874Z,1.20
2018-08-12T16:22:59.181Z,1.60
2018-08-12T16:25:26.402Z,1.40
2018-08-12T16:27:53.593Z,1.57
2018-08-12T16:30:24.562Z,1.43
2018-08-12T16:32:51.823Z,1.30
2018-08-12T16:35:19.149Z,1.40
2018-08-12T16:37:51.922Z,1.20
2018-08-12T16:40:20.512Z,1.20
2018-08-12T16:42:48.140Z,1.40
2018-08-12T16:45:16.230Z,1.30
2018-08-12T16:47:43.955Z,1.30
2018-08-12T16:50:11.468Z,1.60
2018-08-12T16:52:39.148Z,1.40
2018-08-12T16:55:08.863Z,1.40
2018-08-12T16:57:36.069Z,1.83
2018-08-12T17:00:04.660Z,1.40
2018-08-12T17:02:31.859Z,1.20
2018-08-12T17:04:59.749Z,1.33
2018-08-12T17:07:27.021Z,1.27
2018-08-12T17:09:54.411Z,1.30
2018-08-12T17:12:21.665Z,1.60
2018-08-12T17:14:48.879Z,1.40
2018-08-12T17:17:16.148Z,1.40
2018-08-12T17:19:43.316Z,1.60
2018-08-12T17:22:10.546Z,1.20
2018-08-12T17:24:37.915Z,1.30
2018-08-12T17:27:05.468Z,1.53
2018-08-12T17:29:32.616Z,1.80
2018-08-12T17:32:00.137Z,1.40
2018-08-12T17:34:27.432Z,1.33
2018-08-12T17:36:54.646Z,1.43
2018-08-12T17:39:21.964Z,1.10
2018-08-12T17:41:49.088Z,1.43
2018-08-12T17:44:16.279Z,1.30
2018-08-12T17:46:43.731Z,1.40
2018-08-12T17:49:10.965Z,1.30
2018-08-12T17:51:38.213Z,1.40
2018-08-12T17:54:05.577Z,1.30
2018-08-12T17:56:32.769Z,1.83
2018-08-12T17:59:20.586Z,1.77
2018-08-12T18:01:47.863Z,2.10
2018-08-12T18:04:18.253Z,1.70
2018-08-12T18:07:00.141Z,1.90
2018-08-12T18:09:30.146Z,2.53
2018-08-12T18:11:57.514Z,2.47
2018-08-12T18:14:24.694Z,2.60
2018-08-12T18:16:57.915Z,2.97
2018-08-12T18:19:25.179Z,2.80
2018-08-12T18:21:53.075Z,3.10
2018-08-12T18:24:20.329Z,3.10
2018-08-12T18:26:48.268Z,3.40
2018-08-12T18:29:15.583Z,3.67
2018-08-12T18:31:44.789Z,4.33
2018-08-12T18:34:12.164Z,4.37
2018-08-12T18:36:39.452Z,4.47
2018-08-12T18:39:09.900Z,4.43
2018-08-12T18:41:38.136Z,4.77
2018-08-12T18:44:05.352Z,4.20
2018-08-12T18:46:32.642Z,4.20
2018-08-12T18:49:00.153Z,3.77
2018-08-12T18:51:30.833Z,3.40
2018-08-12T18:53:58.032Z,3.00
2018-08-12T18:56:25.172Z,2.77
2018-08-12T18:58:52.341Z,2.70
2018-08-12T19:01:19.688Z,2.30
2018-08-12T19:03:46.776Z,2.07
2018-08-12T19:06:13.952Z,2.30
2018-08-12T19:08:41.159Z,2.07
2018-08-12T19:11:09.169Z,2.40
2018-08-12T19:13:36.345Z,2.60
2018-08-12T19:16:03.581Z,2.80
2018-08-12T19:18:30.919Z,3.40
2018-08-12T19:20:58.082Z,3.43
2018-08-12T19:23:25.246Z,3.93
2018-08-12T19:25:52.367Z,4.40
2018-08-12T19:28:19.561Z,5.10
2018-08-12T19:30:46.710Z,5.67
2018-08-12T19:33:14.099Z,5.00
2018-08-12T19:35:41.261Z,4.43
2018-08-12T19:38:08.476Z,4.40
2018-08-12T19:40:35.674Z,4.10
2018-08-12T19:43:02.836Z,4.33
2018-08-12T19:45:30.005Z,4.10
2018-08-12T19:47:57.228Z,2.90
2018-08-12T19:50:24.376Z,3.20
2018-08-12T19:52:51.656Z,3.00
2018-08-12T19:55:18.840Z,3.17
2018-08-12T19:57:45.970Z,3.30
2018-08-12T20:00:14.276Z,3.30
2018-08-12T20:02:42.486Z,3.13
2018-08-12T20:05:09.742Z,3.47
2018-08-12T20:07:36.919Z,3.70
2018-08-12T20:10:05.559Z,3.87
2018-08-12T20:12:32.784Z,4.27
2018-08-12T20:15:04.851Z,5.27
2018-08-12T20:17:32.133Z,4.50
2018-08-12T20:19:59.366Z,5.03
2018-08-12T20:22:26.777Z,5.53
2018-08-12T20:24:54.021Z,5.60
2018-08-12T20:27:22.355Z,5.87
2018-08-12T20:29:49.668Z,5.57
2018-08-12T20:32:16.834Z,4.70
2018-08-12T20:34:43.953Z,4.80
2018-08-12T20:37:11.217Z,4.77
2018-08-12T20:39:38.473Z,4.47
2018-08-12T20:42:05.672Z,3.80
2018-08-12T20:44:32.832Z,4.13
2018-08-12T20:46:59.967Z,3.60
2018-08-12T20:49:27.192Z,3.77
2018-08-12T20:51:54.435Z,3.43
2018-08-12T20:54:21.672Z,3.40
2018-08-12T20:56:54.326Z,3.23
2018-08-12T20:59:21.560Z,3.60
2018-08-12T21:01:48.879Z,3.13
2018-08-12T21:04:16.057Z,3.40
2018-08-12T21:06:43.254Z,3.03
2018-08-12T21:09:11.244Z,3.10
2018-08-12T21:11:38.476Z,3.20
2018-08-12T21:14:05.744Z,3.27
2018-08-12T21:16:32.910Z,2.50
2018-08-12T21:19:00.144Z,2.70
2018-08-12T21:21:27.308Z,2.30
2018-08-12T21:23:54.473Z,2.67
2018-08-12T21:26:21.980Z,3.00
2018-08-12T21:28:49.100Z,2.70
2018-08-12T21:31:16.349Z,2.33
2018-08-12T21:33:43.517Z,2.50
2018-08-12T21:36:10.637Z,2.43
2018-08-12T21:38:37.892Z,2.20
2018-08-12T21:41:05.038Z,2.40
2018-08-12T21:43:32.227Z,2.80
2018-08-12T21:45:59.338Z,2.60
2018-08-12T21:48:26.515Z,2.53
2018-08-12T21:50:53.729Z,2.30
2018-08-12T21:53:20.849Z,2.50
2018-08-12T21:55:48.091Z,2.13
2018-08-12T21:58:15.273Z,2.30
2018-08-12T22:00:42.490Z,2.40
2018-08-12T22:03:09.780Z,3.23
2018-08-12T22:05:36.912Z,3.10
2018-08-12T22:08:08.620Z,3.60
2018-08-12T22:10:36.520Z,3.53
2018-08-12T22:13:03.723Z,3.33
2018-08-12T22:15:30.932Z,2.50
2018-08-12T22:17:58.118Z,2.87
2018-08-12T22:20:25.351Z,2.60
2018-08-12T22:22:52.490Z,2.87
2018-08-12T22:25:19.679Z,2.63
2018-08-12T22:27:46.892Z,2.50
2018-08-12T22:30:15.457Z,2.83
2018-08-12T22:32:42.716Z,2.47
2018-08-12T22:35:09.831Z,2.60
2018-08-12T22:37:36.992Z,2.70
2018-08-12T22:40:05.584Z,2.57
2018-08-12T22:42:32.705Z,2.73
2018-08-12T22:44:59.864Z,2.70
2018-08-12T22:47:27.043Z,2.63
2018-08-12T22:50:00.208Z,2.73
2018-08-12T22:52:27.443Z,2.80
2018-08-12T22:54:54.627Z,3.10
2018-08-12T22:57:21.807Z,3.17
2018-08-12T22:59:48.971Z,2.80
2018-08-12T23:02:16.220Z,3.23
2018-08-12T23:04:43.590Z,2.97
2018-08-12T23:07:10.751Z,2.80
2018-08-12T23:09:37.937Z,3.20
2018-08-12T23:12:05.200Z,2.93
2018-08-12T23:14:32.443Z,3.17
2018-08-12T23:17:01.069Z,3.40
2018-08-12T23:19:28.505Z,3.50
2018-08-12T23:21:55.839Z,2.90
2018-08-12T23:24:23.041Z,3.10
2018-08-12T23:26:52.281Z,3.23
2018-08-12T23:29:19.932Z,2.90
2018-08-12T23:31:47.069Z,3.03
2018-08-12T23:34:14.411Z,2.73
2018-08-12T23:36:41.621Z,3.10
2018-08-12T23:39:09.510Z,3.00
2018-08-12T23:41:36.743Z,2.97
2018-08-12T23:44:04.944Z,2.80
2018-08-12T23:46:32.163Z,2.70
2018-08-12T23:48:59.345Z,3.07
2018-08-12T23:51:26.523Z,2.90
2018-08-12T23:53:53.770Z,3.03
2018-08-12T23:56:20.911Z,3.50
2018-08-12T23:58:48.420Z,3.23
